Time;durP1;ratioP1;P1;durP2;ratioP2;P2;SDS_P1;SDS_P2;PMS_P1;PMS_P2;Temp;Humidity;BMP_temperature;BMP_pressure;BME280_temperature;BME280_humidity;BME280_pressure;Samples;Min_cycle;Max_cycle;Signal;HPM_P1;HPM_P2
2023/03/26 00:00:01;;;;;;;10.70;5.63;;;;;;;;;;8374445;28;20524;-86
2023/03/26 00:04:05;;;;;;;10.00;5.32;;;;;;;;;;8381827;28;20040;-86
2023/03/26 00:08:08;;;;;;;10.73;4.60;;;;;;;;;;8393185;28;20052;-87
2023/03/26 00:12:11;;;;;;;8.73;4.25;;;;;;;;;;8376324;28;20079;-87
2023/03/26 00:16:18;;;;;;;11.77;4.88;;;;;;;;;;8380634;28;20556;-87
2023/03/26 00:20:21;;;;;;;10.25;4.22;;;;;;;;;;8385236;28;20044;-87
2023/03/26 00:24:28;;;;;;;10.45;4.50;;;;;;;;;;8400444;28;20563;-86
2023/03/26 00:28:31;;;;;;;8.70;4.35;;;;;;;;;;8388284;28;20050;-87
2023/03/26 00:32:35;;;;;;;9.35;4.70;;;;;;;;;;8365447;28;20053;-86
2023/03/26 00:36:41;;;;;;;8.38;4.30;;;;;;;;;;8516522;22;20084;-83
2023/03/26 00:40:46;;;;;;;7.65;3.65;;;;;;;;;;8294730;28;20494;-83
2023/03/26 00:44:53;;;;;;;15.10;4.97;;;;;;;;;;8279744;28;20042;-84
2023/03/26 00:48:58;;;;;;;9.98;5.13;;;;;;;;;;8274076;28;20513;-84
2023/03/26 00:53:01;;;;;;;12.85;6.25;;;;;;;;;;8277953;28;20060;-84
2023/03/26 00:57:05;;;;;;;8.98;5.05;;;;;;;;;;8282701;28;20076;-83
2023/03/26 01:01:12;;;;;;;8.15;4.18;;;;;;;;;;8283006;28;20038;-85
2023/03/26 01:05:51;;;;;;;6.97;3.85;;;;;;;;;;8328107;28;20041;-82
2023/03/26 01:09:55;;;;;;;8.95;4.15;;;;;;;;;;8257700;28;20049;-84
2023/03/26 01:14:00;;;;;;;11.27;4.65;;;;;;;;;;8332686;28;20041;-82
2023/03/26 01:18:04;;;;;;;9.60;4.15;;;;;;;;;;8311640;28;20097;-83
2023/03/26 01:22:15;;;;;;;9.50;4.72;;;;;;;;;;8303602;28;20049;-82
2023/03/26 01:26:44;;;;;;;8.87;4.10;;;;;;;;;;8327600;28;20045;-83
2023/03/26 01:30:57;;;;;;;11.27;4.18;;;;;;;;;;8317252;28;20064;-82
2023/03/26 01:35:21;;;;;;;6.82;3.38;;;;;;;;;;8316891;28;20424;-82
2023/03/26 01:39:29;;;;;;;7.60;3.97;;;;;;;;;;8326582;28;20128;-85
2023/03/26 01:43:39;;;;;;;7.97;3.78;;;;;;;;;;8332183;28;20041;-82
2023/03/26 01:47:44;;;;;;;8.70;3.80;;;;;;;;;;8330965;28;20045;-82
2023/03/26 01:51:47;;;;;;;9.13;3.45;;;;;;;;;;8331413;28;20042;-84
2023/03/26 01:56:00;;;;;;;7.68;3.90;;;;;;;;;;8331181;28;20136;-84
2023/03/26 02:00:27;;;;;;;6.85;3.35;;;;;;;;;;8330738;28;20469;-83
2023/03/26 02:04:37;;;;;;;9.15;3.90;;;;;;;;;;8330823;28;20045;-86
2023/03/26 02:08:46;;;;;;;9.35;3.75;;;;;;;;;;8331684;28;20477;-83
2023/03/26 02:12:50;;;;;;;6.70;3.80;;;;;;;;;;8325287;28;20042;-82
2023/03/26 02:16:55;;;;;;;9.32;3.80;;;;;;;;;;8323918;28;20049;-83
2023/03/26 02:20:58;;;;;;;6.80;3.58;;;;;;;;;;8304225;28;20037;-83
2023/03/26 02:25:01;;;;;;;8.70;4.10;;;;;;;;;;8307846;28;20056;-84
2023/03/26 02:29:04;;;;;;;6.63;4.03;;;;;;;;;;8307051;28;20041;-83
2023/03/26 02:33:14;;;;;;;8.15;4.25;;;;;;;;;;8290989;28;20037;-83
2023/03/26 02:37:17;;;;;;;9.50;3.78;;;;;;;;;;8279479;28;20659;-82
2023/03/26 02:41:21;;;;;;;10.70;4.45;;;;;;;;;;8288205;28;20054;-82
2023/03/26 02:45:24;;;;;;;8.00;4.45;;;;;;;;;;8277358;28;20103;-82
2023/03/26 02:49:28;;;;;;;8.82;4.68;;;;;;;;;;8282664;28;20057;-82
2023/03/26 02:53:31;;;;;;;16.02;6.30;;;;;;;;;;8277712;28;20057;-82
2023/03/26 02:57:33;;;;;;;7.65;4.72;;;;;;;;;;8290917;28;20378;-83
2023/03/26 03:01:41;;;;;;;9.57;4.90;;;;;;;;;;8278901;28;20089;-84
2023/03/26 03:05:45;;;;;;;10.15;3.65;;;;;;;;;;8310737;28;20045;-83
2023/03/26 03:09:49;;;;;;;7.72;4.05;;;;;;;;;;8317881;28;20504;-82
2023/03/26 03:13:53;;;;;;;6.47;3.58;;;;;;;;;;8306123;28;20465;-83
2023/03/26 03:17:56;;;;;;;11.70;4.35;;;;;;;;;;8305015;28;20052;-86
2023/03/26 03:22:00;;;;;;;8.43;4.03;;;;;;;;;;8303672;28;20705;-84
2023/03/26 03:26:03;;;;;;;7.03;3.28;;;;;;;;;;8308233;28;20488;-83
2023/03/26 03:30:07;;;;;;;7.43;3.45;;;;;;;;;;8313644;28;20037;-83
2023/03/26 03:34:10;;;;;;;6.45;3.30;;;;;;;;;;8295068;28;20046;-83
2023/03/26 03:38:15;;;;;;;5.93;3.47;;;;;;;;;;8303017;28;20420;-83
2023/03/26 03:42:18;;;;;;;8.32;3.10;;;;;;;;;;8321847;28;20663;-83
2023/03/26 03:46:21;;;;;;;10.30;3.30;;;;;;;;;;8282343;28;20054;-84
2023/03/26 03:50:24;;;;;;;5.68;3.08;;;;;;;;;;8287195;28;20097;-83
2023/03/26 03:54:29;;;;;;;7.47;3.10;;;;;;;;;;8311527;28;20065;-84
2023/03/26 03:58:33;;;;;;;8.27;3.28;;;;;;;;;;8321240;28;20046;-82
2023/03/26 04:02:36;;;;;;;9.43;6.05;;;;;;;;;;8316321;28;20088;-82
2023/03/26 04:06:39;;;;;;;5.97;3.78;;;;;;;;;;8324134;28;20041;-83
2023/03/26 04:10:43;;;;;;;5.15;3.20;;;;;;;;;;8310936;28;20046;-82
2023/03/26 04:14:46;;;;;;;5.45;3.63;;;;;;;;;;8291337;28;20046;-83
2023/03/26 04:18:48;;;;;;;7.85;3.55;;;;;;;;;;8301401;28;20076;-84
2023/03/26 04:22:51;;;;;;;8.27;3.42;;;;;;;;;;8311047;28;20057;-84
2023/03/26 04:26:59;;;;;;;8.43;4.20;;;;;;;;;;8313960;28;20128;-84
2023/03/26 04:31:04;;;;;;;5.57;3.22;;;;;;;;;;8313966;28;20046;-86
2023/03/26 04:35:07;;;;;;;6.22;3.42;;;;;;;;;;8325164;28;20104;-84
2023/03/26 04:39:13;;;;;;;4.97;3.17;;;;;;;;;;8324267;28;20050;-84
2023/03/26 04:43:18;;;;;;;6.28;3.40;;;;;;;;;;8318014;28;20064;-83
2023/03/26 04:47:22;;;;;;;6.45;3.10;;;;;;;;;;8313292;28;20045;-83
2023/03/26 04:51:33;;;;;;;7.40;3.08;;;;;;;;;;8316252;28;20053;-85
2023/03/26 04:55:45;;;;;;;4.65;2.80;;;;;;;;;;8299754;28;20136;-85
2023/03/26 04:59:50;;;;;;;3.70;2.88;;;;;;;;;;8322300;28;20445;-83
2023/03/26 05:03:53;;;;;;;5.13;3.05;;;;;;;;;;8322601;28;20049;-83
2023/03/26 05:07:56;;;;;;;7.47;4.00;;;;;;;;;;8327615;28;20064;-83
2023/03/26 05:11:58;;;;;;;8.15;3.40;;;;;;;;;;8311266;28;20433;-83
2023/03/26 05:16:03;;;;;;;7.88;3.40;;;;;;;;;;8317934;28;20053;-84
2023/03/26 05:20:08;;;;;;;8.45;4.72;;;;;;;;;;8304318;28;20042;-86
2023/03/26 05:24:13;;;;;;;9.25;4.35;;;;;;;;;;8286735;28;20053;-87
2023/03/26 05:28:19;;;;;;;10.40;4.47;;;;;;;;;;8289410;28;20099;-82
2023/03/26 05:32:25;;;;;;;13.13;5.40;;;;;;;;;;8294364;28;20437;-83
2023/03/26 05:36:29;;;;;;;5.10;3.53;;;;;;;;;;8302310;28;20061;-84
2023/03/26 05:40:32;;;;;;;7.57;4.32;;;;;;;;;;8315826;28;20478;-82
2023/03/26 05:44:35;;;;;;;7.70;4.65;;;;;;;;;;8327509;28;20156;-84
2023/03/26 05:48:40;;;;;;;14.75;8.82;;;;;;;;;;8300911;28;20497;-83
2023/03/26 05:52:43;;;;;;;9.80;4.25;;;;;;;;;;8297203;28;20053;-85
2023/03/26 05:56:46;;;;;;;5.70;3.22;;;;;;;;;;8322693;28;20041;-84
2023/03/26 06:00:49;;;;;;;13.18;7.60;;;;;;;;;;8292142;28;20794;-83
2023/03/26 06:04:53;;;;;;;7.82;5.07;;;;;;;;;;8310989;28;20501;-83
2023/03/26 06:08:56;;;;;;;5.75;2.83;;;;;;;;;;8323185;28;20473;-85
2023/03/26 06:12:59;;;;;;;5.90;3.60;;;;;;;;;;8331029;28;20041;-83
2023/03/26 06:17:02;;;;;;;8.52;3.60;;;;;;;;;;8330688;28;20049;-83
2023/03/26 06:21:07;;;;;;;6.93;3.58;;;;;;;;;;8324133;28;20037;-85
2023/03/26 06:25:10;;;;;;;4.82;3.15;;;;;;;;;;8306035;28;20053;-84
2023/03/26 06:29:13;;;;;;;6.35;3.55;;;;;;;;;;8308368;28;20041;-85
2023/03/26 06:33:16;;;;;;;6.80;2.60;;;;;;;;;;8301104;28;20064;-84
2023/03/26 06:37:20;;;;;;;5.65;3.38;;;;;;;;;;8288025;28;20068;-83
2023/03/26 06:41:24;;;;;;;6.03;3.20;;;;;;;;;;8315208;28;20053;-84
2023/03/26 06:45:27;;;;;;;7.90;3.40;;;;;;;;;;8287780;28;20053;-84
2023/03/26 06:49:30;;;;;;;5.18;2.97;;;;;;;;;;8328425;28;20052;-84
2023/03/26 06:53:34;;;;;;;4.60;2.45;;;;;;;;;;8312443;28;20049;-83
2023/03/26 06:57:37;;;;;;;8.30;4.10;;;;;;;;;;8321466;28;20048;-84
2023/03/26 07:01:41;;;;;;;5.38;3.00;;;;;;;;;;8291723;28;20046;-87
2023/03/26 07:05:46;;;;;;;6.82;3.78;;;;;;;;;;8292786;28;20125;-84
2023/03/26 07:09:52;;;;;;;5.63;2.80;;;;;;;;;;8292228;28;20042;-87
2023/03/26 07:13:56;;;;;;;5.13;2.75;;;;;;;;;;8304559;28;20046;-84
2023/03/26 07:17:59;;;;;;;7.95;3.30;;;;;;;;;;8292032;28;20057;-83
2023/03/26 07:22:03;;;;;;;5.45;2.67;;;;;;;;;;8293525;28;20076;-83
2023/03/26 07:26:24;;;;;;;2.83;1.98;;;;;;;;;;8297667;28;20045;-82
2023/03/26 07:30:37;;;;;;;4.03;2.63;;;;;;;;;;8287977;28;20552;-88
2023/03/26 07:34:50;;;;;;;6.20;2.20;;;;;;;;;;8302378;28;20129;-85
2023/03/26 07:39:01;;;;;;;;;;;;;;;;;;8291458;28;20081;-83
2023/03/26 07:43:19;;;;;;;4.20;2.40;;;;;;;;;;8287439;28;19925;-85
2023/03/26 07:47:25;;;;;;;4.88;2.20;;;;;;;;;;8286146;28;20046;-85
2023/03/26 07:51:31;;;;;;;3.42;2.20;;;;;;;;;;8290271;28;20046;-83
2023/03/26 07:55:46;;;;;;;2.88;2.00;;;;;;;;;;8291609;28;20064;-83
2023/03/26 08:00:01;;;;;;;4.65;2.45;;;;;;;;;;8291733;28;20057;-83
2023/03/26 08:04:09;;;;;;;;;;;;;;;;;;8282097;28;20050;-83
2023/03/26 08:08:19;;;;;;;2.90;1.80;;;;;;;;;;8287073;28;20072;-83
2023/03/26 08:12:34;;;;;;;1.25;1.10;;;;;;;;;;8283799;28;20050;-84
2023/03/26 08:16:51;;;;;;;2.50;1.80;;;;;;;;;;8291287;28;20136;-83
2023/03/26 08:21:12;;;;;;;2.78;1.50;;;;;;;;;;8302540;28;20132;-84
2023/03/26 08:25:31;;;;;;;3.95;2.00;;;;;;;;;;8273582;28;20065;-83
2023/03/26 08:29:44;;;;;;;2.17;1.40;;;;;;;;;;8294044;28;20056;-81
2023/03/26 08:33:57;;;;;;;3.17;1.60;;;;;;;;;;8289563;28;20092;-82
2023/03/26 08:38:06;;;;;;;2.88;1.90;;;;;;;;;;8282303;28;20058;-82
2023/03/26 08:42:47;;;;;;;1.88;1.50;;;;;;;;;;8286842;28;20042;-85
2023/03/26 08:47:17;;;;;;;2.95;1.35;;;;;;;;;;8282464;28;20041;-82
2023/03/26 08:51:53;;;;;;;2.65;1.80;;;;;;;;;;8295233;28;20052;-81
2023/03/26 08:56:01;;;;;;;4.22;2.20;;;;;;;;;;8294206;28;20050;-81
2023/03/26 09:00:27;;;;;;;4.28;1.90;;;;;;;;;;8287720;28;20417;-82
2023/03/26 09:05:12;;;;;;;2.90;2.17;;;;;;;;;;8274983;28;20120;-82
2023/03/26 09:09:54;;;;;;;4.85;2.88;;;;;;;;;;8273175;28;20058;-81
2023/03/26 09:14:11;;;;;;;;;;;;;;;;;;8294550;28;20073;-82
2023/03/26 09:19:05;;;;;;;5.45;2.50;;;;;;;;;;8292930;28;19929;-90
2023/03/26 09:23:57;;;;;;;6.25;2.70;;;;;;;;;;8295627;28;20129;-83
2023/03/26 09:28:21;;;;;;;6.10;3.75;;;;;;;;;;8223798;28;20057;-87
2023/03/26 09:32:53;;;;;;;8.10;3.10;;;;;;;;;;8302436;28;20057;-84
2023/03/26 09:37:11;;;;;;;5.30;2.70;;;;;;;;;;8288052;28;20058;-83
2023/03/26 09:41:18;;;;;;;6.00;3.17;;;;;;;;;;8289577;28;20795;-84
2023/03/26 09:45:50;;;;;;;5.20;2.42;;;;;;;;;;8292083;28;20092;-84
2023/03/26 09:50:04;;;;;;;5.45;2.85;;;;;;;;;;8282073;28;20048;-83
2023/03/26 09:54:43;;;;;;;5.38;2.85;;;;;;;;;;8288492;28;20100;-82
2023/03/26 09:59:25;;;;;;;4.43;2.78;;;;;;;;;;8281629;28;20049;-82
2023/03/26 10:03:36;;;;;;;;;;;;;;;;;;8294393;28;20061;-82
2023/03/26 10:07:55;;;;;;;3.20;1.90;;;;;;;;;;8291277;28;19964;-81
2023/03/26 10:12:10;;;;;;;4.95;2.38;;;;;;;;;;8292860;28;20300;-82
2023/03/26 10:16:24;;;;;;;7.43;3.50;;;;;;;;;;8289557;28;20387;-82
2023/03/26 10:20:49;;;;;;;3.05;1.75;;;;;;;;;;8283553;28;20103;-83
2023/03/26 10:25:19;;;;;;;1.48;1.33;;;;;;;;;;8288631;28;20120;-82
2023/03/26 10:29:50;;;;;;;3.90;1.58;;;;;;;;;;8291912;28;21360;-82
2023/03/26 10:34:04;;;;;;;6.93;3.33;;;;;;;;;;8293791;28;20448;-82
2023/03/26 10:38:21;;;;;;;3.80;1.77;;;;;;;;;;8303670;28;20058;-82
2023/03/26 10:42:47;;;;;;;3.88;2.13;;;;;;;;;;8291052;28;20049;-82
2023/03/26 10:47:20;;;;;;;6.20;2.95;;;;;;;;;;8305412;28;20137;-84
2023/03/26 10:51:57;;;;;;;5.15;1.90;;;;;;;;;;8297259;28;20049;-82
2023/03/26 10:56:15;;;;;;;4.55;1.80;;;;;;;;;;8245915;28;20054;-89
2023/03/26 11:00:27;;;;;;;6.53;3.15;;;;;;;;;;8290880;28;20442;-81
2023/03/26 11:04:40;;;;;;;2.75;1.70;;;;;;;;;;8282912;28;20046;-82
2023/03/26 11:08:52;;;;;;;4.15;2.13;;;;;;;;;;8285523;28;20048;-82
2023/03/26 11:13:08;;;;;;;2.30;1.70;;;;;;;;;;8288369;28;20064;-84
2023/03/26 11:17:19;;;;;;;2.45;1.80;;;;;;;;;;8284618;28;20070;-82
2023/03/26 11:21:28;;;;;;;5.13;2.30;;;;;;;;;;8290311;28;20041;-84
2023/03/26 11:25:45;;;;;;;4.70;2.25;;;;;;;;;;8291254;28;20041;-82
2023/03/26 11:30:03;;;;;;;2.40;1.40;;;;;;;;;;8290907;28;20149;-82
2023/03/26 11:34:14;;;;;;;7.38;2.58;;;;;;;;;;8290645;28;20557;-81
2023/03/26 11:38:23;;;;;;;8.25;2.97;;;;;;;;;;8280112;28;20065;-83
2023/03/26 11:42:28;;;;;;;8.93;3.05;;;;;;;;;;8290359;28;20556;-82
2023/03/26 11:46:36;;;;;;;3.03;1.83;;;;;;;;;;8293657;28;20064;-81
2023/03/26 11:50:45;;;;;;;4.78;2.35;;;;;;;;;;8278452;28;20061;-82
2023/03/26 11:54:49;;;;;;;5.88;2.80;;;;;;;;;;8291510;28;20616;-81
2023/03/26 11:58:59;;;;;;;6.47;3.58;;;;;;;;;;8289063;28;20045;-82
2023/03/26 12:03:04;;;;;;;8.98;3.60;;;;;;;;;;8290751;28;20198;-82
2023/03/26 12:07:09;;;;;;;9.85;3.25;;;;;;;;;;8289834;28;20493;-82
2023/03/26 12:11:12;;;;;;;7.85;3.50;;;;;;;;;;8290566;28;20081;-82
2023/03/26 12:15:17;;;;;;;9.05;3.40;;;;;;;;;;8289766;28;20054;-81
2023/03/26 12:19:23;;;;;;;8.60;3.95;;;;;;;;;;8288792;28;20478;-81
2023/03/26 12:23:44;;;;;;;7.25;3.33;;;;;;;;;;8290029;28;20068;-82
2023/03/26 12:27:49;;;;;;;5.87;3.00;;;;;;;;;;8286933;28;20045;-81
2023/03/26 12:31:55;;;;;;;6.07;2.72;;;;;;;;;;8286341;28;20486;-82
2023/03/26 12:36:17;;;;;;;8.65;3.00;;;;;;;;;;8292379;28;20490;-82
2023/03/26 12:40:31;;;;;;;10.43;3.40;;;;;;;;;;8283883;28;20042;-82
2023/03/26 12:44:45;;;;;;;9.02;3.55;;;;;;;;;;8285028;28;20120;-85
2023/03/26 12:48:50;;;;;;;6.30;3.10;;;;;;;;;;8290364;28;20466;-84
2023/03/26 12:53:05;;;;;;;6.38;2.97;;;;;;;;;;8291820;28;20038;-85
2023/03/26 12:57:21;;;;;;;7.93;3.67;;;;;;;;;;8281548;28;20485;-81
2023/03/26 13:01:31;;;;;;;6.30;3.45;;;;;;;;;;8294802;28;20157;-84
2023/03/26 13:05:59;;;;;;;5.55;3.22;;;;;;;;;;8295413;28;20069;-81
2023/03/26 13:10:26;;;;;;;4.60;2.58;;;;;;;;;;8287012;28;20050;-83
2023/03/26 13:14:58;;;;;;;5.05;2.42;;;;;;;;;;8278298;28;20054;-82
2023/03/26 13:19:07;;;;;;;5.90;3.00;;;;;;;;;;8290647;28;20072;-85
2023/03/26 13:23:17;;;;;;;4.10;2.25;;;;;;;;;;8292759;28;20042;-81
2023/03/26 13:27:37;;;;;;;3.92;2.40;;;;;;;;;;8288205;28;20200;-81
2023/03/26 13:31:51;;;;;;;6.35;3.65;;;;;;;;;;8289686;28;20096;-81
2023/03/26 13:36:01;;;;;;;2.92;2.00;;;;;;;;;;8288610;28;20054;-85
2023/03/26 13:40:24;;;;;;;2.40;1.50;;;;;;;;;;8292243;28;20129;-82
2023/03/26 13:44:38;;;;;;;2.53;1.65;;;;;;;;;;8291210;28;20057;-82
2023/03/26 13:48:46;;;;;;;6.35;2.97;;;;;;;;;;8289283;28;20049;-81
2023/03/26 13:52:54;;;;;;;6.25;2.90;;;;;;;;;;8284282;28;20181;-81
2023/03/26 13:57:05;;;;;;;4.28;1.90;;;;;;;;;;8291562;28;20050;-82
2023/03/26 14:01:15;;;;;;;5.22;3.08;;;;;;;;;;8301077;28;20046;-82
2023/03/26 14:05:24;;;;;;;4.43;2.17;;;;;;;;;;8291353;28;20046;-84
2023/03/26 14:09:35;;;;;;;2.53;2.00;;;;;;;;;;8285116;28;20492;-83
2023/03/26 14:13:46;;;;;;;2.03;1.58;;;;;;;;;;8286549;28;20054;-84
2023/03/26 14:17:59;;;;;;;2.28;1.30;;;;;;;;;;8288234;28;20516;-82
2023/03/26 14:22:17;;;;;;;2.33;1.48;;;;;;;;;;8287146;28;20477;-83
2023/03/26 14:26:36;;;;;;;5.10;2.58;;;;;;;;;;8298033;28;20091;-82
2023/03/26 14:31:04;;;;;;;3.97;2.13;;;;;;;;;;8289069;28;20046;-82
2023/03/26 14:35:32;;;;;;;3.17;2.00;;;;;;;;;;8284941;28;20045;-83
2023/03/26 14:39:54;;;;;;;2.70;1.88;;;;;;;;;;8283197;28;20076;-84
2023/03/26 14:44:32;;;;;;;4.10;2.25;;;;;;;;;;8289452;28;20473;-82
2023/03/26 14:49:04;;;;;;;2.70;1.60;;;;;;;;;;8280076;28;20069;-81
2023/03/26 14:53:18;;;;;;;3.28;1.90;;;;;;;;;;8286951;28;20065;-80
2023/03/26 14:58:02;;;;;;;2.58;1.50;;;;;;;;;;8287720;28;20421;-80
2023/03/26 15:02:50;;;;;;;1.95;1.40;;;;;;;;;;8251592;28;20077;-82
2023/03/26 15:07:39;;;;;;;3.35;1.83;;;;;;;;;;8291071;28;20050;-84
2023/03/26 15:11:51;;;;;;;2.30;1.75;;;;;;;;;;8290347;28;20383;-81
2023/03/26 15:16:34;;;;;;;3.38;2.00;;;;;;;;;;8289541;28;20048;-83
2023/03/26 15:21:14;;;;;;;4.65;3.08;;;;;;;;;;8289144;28;20060;-81
2023/03/26 15:25:59;;;;;;;5.75;2.28;;;;;;;;;;8282977;28;20045;-80
2023/03/26 15:30:29;;;;;;;7.30;2.60;;;;;;;;;;8289423;28;20053;-81
2023/03/26 15:35:04;;;;;;;3.38;2.03;;;;;;;;;;8285338;28;20041;-84
2023/03/26 15:39:45;;;;;;;2.63;2.15;;;;;;;;;;8286260;28;20046;-82
2023/03/26 15:44:31;;;;;;;3.35;2.20;;;;;;;;;;8283763;28;20046;-81
2023/03/26 15:48:52;;;;;;;5.82;3.13;;;;;;;;;;8288232;28;20508;-81
2023/03/26 15:53:08;;;;;;;5.97;3.60;;;;;;;;;;8301237;28;20060;-82
2023/03/26 15:57:28;;;;;;;7.78;3.15;;;;;;;;;;8282163;28;20047;-82
2023/03/26 16:01:45;;;;;;;7.13;3.70;;;;;;;;;;8286970;28;20124;-83
2023/03/26 16:06:26;;;;;;;5.72;2.97;;;;;;;;;;8298060;28;20564;-82
2023/03/26 16:10:39;;;;;;;8.02;4.22;;;;;;;;;;8297581;28;20104;-81
2023/03/26 16:14:45;;;;;;;6.53;3.42;;;;;;;;;;8304626;28;20041;-86
2023/03/26 16:18:57;;;;;;;6.30;3.58;;;;;;;;;;8305035;28;20057;-84
2023/03/26 16:23:26;;;;;;;9.65;4.60;;;;;;;;;;8333349;28;20132;-82
2023/03/26 16:27:32;;;;;;;7.38;4.00;;;;;;;;;;8310337;28;20053;-82
2023/03/26 16:31:37;;;;;;;8.75;4.38;;;;;;;;;;8332857;28;20171;-82
2023/03/26 16:35:54;;;;;;;10.25;5.68;;;;;;;;;;8316699;28;20062;-85
2023/03/26 16:40:50;;;;;;;10.43;5.05;;;;;;;;;;8308277;28;20070;-82
2023/03/26 16:45:10;;;;;;;9.65;4.85;;;;;;;;;;8324076;28;20121;-81
2023/03/26 16:49:31;;;;;;;8.50;2.90;;;;;;;;;;8297542;28;20147;-82
2023/03/26 16:53:42;;;;;;;5.32;2.72;;;;;;;;;;8332195;28;20115;-80
2023/03/26 16:57:56;;;;;;;4.13;2.55;;;;;;;;;;8331641;28;20053;-84
2023/03/26 17:02:12;;;;;;;2.75;1.90;;;;;;;;;;8280350;28;20042;-86
2023/03/26 17:06:37;;;;;;;7.50;3.17;;;;;;;;;;8296855;28;20511;-84
2023/03/26 17:10:55;;;;;;;3.60;2.08;;;;;;;;;;8317008;28;20049;-83
2023/03/26 17:15:18;;;;;;;3.38;2.05;;;;;;;;;;8305832;28;20049;-83
2023/03/26 17:19:30;;;;;;;2.20;1.90;;;;;;;;;;8323679;28;20045;-83
2023/03/26 17:23:49;;;;;;;2.13;1.90;;;;;;;;;;8292241;28;20412;-83
2023/03/26 17:28:12;;;;;;;2.00;1.80;;;;;;;;;;8326408;28;20136;-84
2023/03/26 17:32:20;;;;;;;8.20;4.10;;;;;;;;;;8319248;28;20050;-84
2023/03/26 17:36:44;;;;;;;48.15;22.27;;;;;;;;;;8325541;28;20053;-83
2023/03/26 17:40:53;;;;;;;48.25;26.17;;;;;;;;;;8330290;28;20048;-84
2023/03/26 17:45:12;;;;;;;149.32;52.33;;;;;;;;;;8315762;28;20080;-83
2023/03/26 17:49:25;;;;;;;98.57;37.75;;;;;;;;;;8318206;28;20481;-82
2023/03/26 17:53:32;;;;;;;85.22;35.03;;;;;;;;;;8301121;28;20041;-83
2023/03/26 17:57:41;;;;;;;109.75;42.05;;;;;;;;;;8293285;28;20113;-83
2023/03/26 18:01:48;;;;;;;66.28;26.58;;;;;;;;;;8297640;28;20590;-84
2023/03/26 18:06:08;;;;;;;64.78;24.02;;;;;;;;;;8317394;28;20049;-82
2023/03/26 18:10:33;;;;;;;19.48;9.27;;;;;;;;;;8310371;28;20045;-87
2023/03/26 18:15:04;;;;;;;6.85;4.07;;;;;;;;;;8297563;28;20557;-83
2023/03/26 18:19:17;;;;;;;27.37;11.73;;;;;;;;;;8312465;28;20052;-85
2023/03/26 18:23:30;;;;;;;51.37;20.27;;;;;;;;;;8274887;28;20061;-84
2023/03/26 18:27:38;;;;;;;9.52;4.47;;;;;;;;;;8297901;28;20048;-82
2023/03/26 18:31:47;;;;;;;12.60;7.65;;;;;;;;;;8290074;28;20050;-84
2023/03/26 18:35:55;;;;;;;18.95;8.05;;;;;;;;;;8283793;28;20046;-86
2023/03/26 18:40:10;;;;;;;6.43;3.72;;;;;;;;;;8290480;28;20050;-83
2023/03/26 18:44:18;;;;;;;7.63;4.72;;;;;;;;;;8275541;28;20042;-86
2023/03/26 18:48:27;;;;;;;8.20;3.75;;;;;;;;;;8324203;28;20049;-85
2023/03/26 18:52:33;;;;;;;6.55;3.58;;;;;;;;;;8300861;28;20081;-85
2023/03/26 18:56:42;;;;;;;3.58;2.75;;;;;;;;;;8325718;28;20046;-83
2023/03/26 19:00:46;;;;;;;88.47;27.33;;;;;;;;;;8309397;28;20477;-85
2023/03/26 19:04:53;;;;;;;38.72;15.30;;;;;;;;;;8309297;28;20042;-86
2023/03/26 19:08:58;;;;;;;32.95;15.85;;;;;;;;;;8311730;28;20050;-83
2023/03/26 19:13:04;;;;;;;40.38;16.02;;;;;;;;;;8310901;28;20041;-84
2023/03/26 19:17:12;;;;;;;85.13;40.70;;;;;;;;;;8288035;28;20068;-83
2023/03/26 19:21:19;;;;;;;55.78;26.42;;;;;;;;;;8316707;28;20061;-84
2023/03/26 19:25:30;;;;;;;67.60;35.65;;;;;;;;;;8321660;28;20470;-85
2023/03/26 19:29:39;;;;;;;307.30;105.95;;;;;;;;;;8311883;28;20142;-83
2023/03/26 19:33:53;;;;;;;19.35;10.45;;;;;;;;;;8311804;28;20400;-84
2023/03/26 19:37:59;;;;;;;36.70;24.80;;;;;;;;;;8320744;28;20062;-83
2023/03/26 19:42:07;;;;;;;50.63;30.45;;;;;;;;;;8294513;28;20053;-84
2023/03/26 19:46:15;;;;;;;25.83;16.27;;;;;;;;;;8295142;28;20042;-83
2023/03/26 19:50:25;;;;;;;86.53;41.53;;;;;;;;;;8290634;28;20463;-84
2023/03/26 19:54:30;;;;;;;127.03;64.90;;;;;;;;;;8299041;28;20049;-83
2023/03/26 19:58:40;;;;;;;66.03;36.13;;;;;;;;;;8301105;28;20527;-84
2023/03/26 20:02:47;;;;;;;20.33;13.25;;;;;;;;;;8294731;28;20622;-82
2023/03/26 20:06:51;;;;;;;16.70;9.55;;;;;;;;;;8298189;28;20049;-83
2023/03/26 20:11:00;;;;;;;12.50;7.35;;;;;;;;;;8319464;28;20497;-83
2023/03/26 20:15:16;;;;;;;15.20;8.10;;;;;;;;;;8327004;28;20046;-82
2023/03/26 20:19:21;;;;;;;14.85;6.80;;;;;;;;;;8328570;28;20497;-83
2023/03/26 20:23:27;;;;;;;22.63;9.13;;;;;;;;;;8316343;28;20092;-87
2023/03/26 20:27:32;;;;;;;25.67;14.95;;;;;;;;;;8301825;28;20060;-83
2023/03/26 20:31:40;;;;;;;25.05;12.80;;;;;;;;;;8327746;28;20049;-84
2023/03/26 20:35:46;;;;;;;36.97;18.27;;;;;;;;;;8304238;28;20140;-83
2023/03/26 20:39:50;;;;;;;44.53;19.65;;;;;;;;;;8320567;28;20046;-83
2023/03/26 20:43:55;;;;;;;43.97;16.52;;;;;;;;;;8333823;28;20077;-83
2023/03/26 20:47:58;;;;;;;92.00;37.50;;;;;;;;;;8333036;28;20053;-85
2023/03/26 20:52:04;;;;;;;31.42;18.25;;;;;;;;;;8333451;28;20470;-82
2023/03/26 20:56:12;;;;;;;18.90;10.38;;;;;;;;;;8320210;28;20045;-83
2023/03/26 21:00:20;;;;;;;22.38;10.90;;;;;;;;;;8327892;28;20559;-82
2023/03/26 21:04:24;;;;;;;16.67;9.02;;;;;;;;;;8332958;28;20043;-84
2023/03/26 21:08:36;;;;;;;38.47;16.50;;;;;;;;;;8331123;28;20041;-82
2023/03/26 21:12:44;;;;;;;24.83;11.90;;;;;;;;;;8308208;28;20443;-82
2023/03/26 21:16:47;;;;;;;38.60;17.17;;;;;;;;;;8333007;28;20049;-81
2023/03/26 21:21:00;;;;;;;20.70;9.80;;;;;;;;;;8311259;28;20099;-82
2023/03/26 21:25:18;;;;;;;22.50;9.95;;;;;;;;;;8309379;28;20103;-83
2023/03/26 21:29:22;;;;;;;19.40;8.43;;;;;;;;;;8324942;28;20052;-81
2023/03/26 21:33:26;;;;;;;30.00;10.30;;;;;;;;;;8318144;28;20053;-81
2023/03/26 21:37:29;;;;;;;26.58;10.70;;;;;;;;;;8316408;28;20065;-81
2023/03/26 21:41:42;;;;;;;18.25;7.30;;;;;;;;;;8326573;28;20049;-83
2023/03/26 21:45:46;;;;;;;21.02;8.57;;;;;;;;;;8332663;28;20432;-82
2023/03/26 21:49:49;;;;;;;21.80;10.45;;;;;;;;;;8330060;28;20056;-84
2023/03/26 21:53:53;;;;;;;21.42;9.02;;;;;;;;;;8315291;28;20160;-82
2023/03/26 21:58:10;;;;;;;50.78;16.48;;;;;;;;;;8320881;28;20049;-82
2023/03/26 22:02:23;;;;;;;23.60;8.80;;;;;;;;;;8317553;28;20045;-83
2023/03/26 22:06:31;;;;;;;13.55;7.65;;;;;;;;;;8290548;28;20049;-82
2023/03/26 22:10:33;;;;;;;19.88;8.05;;;;;;;;;;8318340;28;20095;-82
2023/03/26 22:14:37;;;;;;;18.15;8.52;;;;;;;;;;8300309;28;20477;-82
2023/03/26 22:18:42;;;;;;;16.02;7.63;;;;;;;;;;8324158;28;20053;-82
2023/03/26 22:22:47;;;;;;;18.05;8.68;;;;;;;;;;8325843;28;20037;-81
2023/03/26 22:26:50;;;;;;;47.53;16.45;;;;;;;;;;8318672;28;20464;-82
2023/03/26 22:30:54;;;;;;;22.23;8.18;;;;;;;;;;8293603;28;20057;-82
2023/03/26 22:34:57;;;;;;;21.33;8.63;;;;;;;;;;8313259;28;20054;-83
2023/03/26 22:39:00;;;;;;;19.10;8.55;;;;;;;;;;8314329;28;20050;-82
2023/03/26 22:43:03;;;;;;;15.93;7.78;;;;;;;;;;8318535;28;20049;-81
2023/03/26 22:47:08;;;;;;;16.50;8.00;;;;;;;;;;8312043;28;20103;-82
2023/03/26 22:51:10;;;;;;;19.25;7.55;;;;;;;;;;8320324;28;20050;-83
2023/03/26 22:55:14;;;;;;;15.27;8.15;;;;;;;;;;8312299;28;20406;-82
2023/03/26 22:59:17;;;;;;;26.27;12.75;;;;;;;;;;8317696;28;20042;-83
2023/03/26 23:03:22;;;;;;;19.60;9.20;;;;;;;;;;8317778;28;20079;-82
2023/03/26 23:07:25;;;;;;;15.18;7.47;;;;;;;;;;8306093;28;20045;-82
2023/03/26 23:11:29;;;;;;;18.58;7.75;;;;;;;;;;8326970;28;20152;-82
2023/03/26 23:15:32;;;;;;;17.40;8.27;;;;;;;;;;8312337;28;20096;-83
2023/03/26 23:19:37;;;;;;;17.58;8.23;;;;;;;;;;8311651;28;20042;-82
2023/03/26 23:23:41;;;;;;;16.63;8.90;;;;;;;;;;8323221;28;20042;-82
2023/03/26 23:27:43;;;;;;;19.75;8.35;;;;;;;;;;8313296;28;20048;-83
2023/03/26 23:31:46;;;;;;;19.95;9.00;;;;;;;;;;8310109;28;20042;-82
2023/03/26 23:35:56;;;;;;;19.80;9.07;;;;;;;;;;8300820;28;20129;-83
2023/03/26 23:39:59;;;;;;;20.77;9.40;;;;;;;;;;8314132;28;20045;-84
2023/03/26 23:44:02;;;;;;;19.27;9.90;;;;;;;;;;8321832;28;20049;-83
2023/03/26 23:48:05;;;;;;;20.10;9.27;;;;;;;;;;8314505;28;20045;-84
2023/03/26 23:52:10;;;;;;;18.45;9.50;;;;;;;;;;8324908;28;20049;-83
2023/03/26 23:56:14;;;;;;;21.20;8.60;;;;;;;;;;8300227;28;20570;-87
